createdAt,value
2023-03-05T00:01:28.963Z,5.73
2023-03-05T00:03:58.623Z,5.65
2023-03-05T00:06:31.625Z,5.59
2023-03-05T00:08:59.829Z,5.87
2023-03-05T00:11:30.334Z,5.66
2023-03-05T00:13:58.994Z,5.97
2023-03-05T00:16:27.902Z,5.77
2023-03-05T00:18:56.639Z,5.84
2023-03-05T00:21:36.655Z,5.95
2023-03-05T00:24:07.634Z,5.95
2023-03-05T00:26:37.054Z,6.02
2023-03-05T00:29:06.510Z,5.98
2023-03-05T00:31:36.516Z,5.97
2023-03-05T00:34:09.540Z,5.88
2023-03-05T00:36:44.214Z,5.72
2023-03-05T00:39:12.316Z,5.79
2023-03-05T00:41:40.405Z,5.64
2023-03-05T00:44:08.434Z,5.86
2023-03-05T00:46:36.566Z,6.14
2023-03-05T00:49:04.795Z,5.90
2023-03-05T00:51:32.284Z,5.73
2023-03-05T00:54:00.120Z,5.69
2023-03-05T00:56:27.878Z,5.85
2023-03-05T00:58:56.231Z,5.69
2023-03-05T01:01:24.469Z,5.99
2023-03-05T01:03:52.513Z,5.93
2023-03-05T01:06:20.017Z,5.99
2023-03-05T01:08:47.825Z,5.91
2023-03-05T01:11:15.257Z,6.18
2023-03-05T01:13:42.948Z,6.08
2023-03-05T01:16:10.953Z,6.29
2023-03-05T01:18:40.127Z,6.06
2023-03-05T01:21:09.054Z,6.25
2023-03-05T01:23:37.697Z,6.36
2023-03-05T01:26:05.875Z,6.38
2023-03-05T01:28:33.674Z,6.23
2023-03-05T01:31:01.108Z,6.29
2023-03-05T01:33:28.845Z,6.20
2023-03-05T01:35:56.391Z,6.37
2023-03-05T01:38:24.248Z,6.07
2023-03-05T01:40:51.733Z,5.84
2023-03-05T01:43:31.397Z,5.90
2023-03-05T01:46:38.580Z,5.95
2023-03-05T01:49:18.004Z,5.79
2023-03-05T01:51:56.639Z,6.09
2023-03-05T01:54:29.693Z,5.84
2023-03-05T01:56:59.144Z,5.88
2023-03-05T01:59:28.556Z,5.84
2023-03-05T02:01:58.261Z,5.85
2023-03-05T02:04:32.694Z,5.68
2023-03-05T02:07:00.368Z,5.46
2023-03-05T02:09:28.963Z,5.25
2023-03-05T02:11:57.529Z,5.22
2023-03-05T02:14:26.126Z,5.17
2023-03-05T02:16:53.592Z,5.15
2023-03-05T02:19:21.388Z,5.26
2023-03-05T02:21:50.740Z,5.36
2023-03-05T02:24:34.466Z,5.38
2023-03-05T02:27:03.127Z,5.09
2023-03-05T02:29:33.728Z,5.00
2023-03-05T02:32:01.963Z,5.08
2023-03-05T02:34:30.172Z,5.13
2023-03-05T02:36:58.201Z,5.29
2023-03-05T02:39:27.614Z,4.90
2023-03-05T02:41:55.077Z,5.15
2023-03-05T02:44:23.471Z,5.02
2023-03-05T02:46:50.932Z,4.80
2023-03-05T02:49:19.240Z,4.84
2023-03-05T02:51:46.655Z,4.81
2023-03-05T02:54:15.971Z,4.70
2023-03-05T02:56:50.789Z,4.78
2023-03-05T02:59:27.056Z,4.53
2023-03-05T03:01:59.465Z,4.54
2023-03-05T03:04:30.401Z,4.34
2023-03-05T03:06:57.796Z,4.27
2023-03-05T03:09:26.902Z,4.44
2023-03-05T03:11:54.468Z,4.39
2023-03-05T03:14:22.558Z,4.40
2023-03-05T03:16:50.596Z,4.40
2023-03-05T03:19:18.285Z,4.11
2023-03-05T03:21:45.676Z,4.16
2023-03-05T03:24:13.412Z,4.35
2023-03-05T03:26:40.925Z,4.26
2023-03-05T03:29:08.735Z,4.16
2023-03-05T03:31:36.208Z,4.42
2023-03-05T03:34:03.882Z,4.59
2023-03-05T03:36:32.288Z,4.10
2023-03-05T03:39:00.022Z,4.26
2023-03-05T03:41:27.313Z,3.85
2023-03-05T03:43:55.896Z,3.63
2023-03-05T03:46:23.418Z,3.67
2023-03-05T03:48:51.892Z,3.99
2023-03-05T03:51:19.280Z,3.96
2023-03-05T03:53:47.197Z,3.70
2023-03-05T03:56:15.589Z,3.60
2023-03-05T03:58:43.308Z,3.57
2023-03-05T04:01:10.933Z,3.88
2023-03-05T04:03:38.954Z,3.84
2023-03-05T04:06:07.262Z,3.74
2023-03-05T04:08:35.022Z,3.69
2023-03-05T04:11:03.063Z,3.77
2023-03-05T04:13:30.929Z,3.76
2023-03-05T04:15:58.473Z,3.59
2023-03-05T04:18:26.258Z,3.41
2023-03-05T04:20:53.857Z,3.43
2023-03-05T04:23:22.072Z,3.60
2023-03-05T04:25:49.395Z,3.36
2023-03-05T04:28:18.277Z,3.47
2023-03-05T04:30:45.584Z,3.44
2023-03-05T04:33:13.370Z,3.57
2023-03-05T04:35:40.744Z,3.67
2023-03-05T04:38:09.086Z,3.63
2023-03-05T04:40:36.746Z,3.61
2023-03-05T04:43:05.341Z,3.75
2023-03-05T04:45:33.670Z,3.57
2023-03-05T04:48:01.471Z,3.42
2023-03-05T04:50:28.965Z,3.51
2023-03-05T04:52:56.652Z,3.37
2023-03-05T04:55:24.192Z,3.29
2023-03-05T04:57:51.916Z,3.38
2023-03-05T05:00:20.161Z,3.44
2023-03-05T05:02:49.927Z,3.45
2023-03-05T05:05:20.501Z,3.51
2023-03-05T05:07:48.162Z,3.62
2023-03-05T05:10:16.538Z,3.62
2023-03-05T05:12:44.217Z,3.48
2023-03-05T05:15:13.623Z,3.46
2023-03-05T05:17:41.333Z,3.30
2023-03-05T05:20:11.672Z,3.54
2023-03-05T05:22:39.862Z,3.27
2023-03-05T05:25:08.072Z,3.57
2023-03-05T05:27:36.035Z,3.56
2023-03-05T05:30:04.405Z,3.54
2023-03-05T05:32:32.121Z,3.77
2023-03-05T05:35:00.056Z,3.82
2023-03-05T05:37:27.959Z,3.88
2023-03-05T05:39:55.409Z,3.59
2023-03-05T05:42:25.377Z,3.89
2023-03-05T05:44:53.574Z,3.76
2023-03-05T05:47:21.852Z,4.11
2023-03-05T05:49:51.763Z,4.02
2023-03-05T05:52:19.428Z,3.80
2023-03-05T05:54:46.894Z,4.33
2023-03-05T05:57:15.974Z,5.20
2023-03-05T05:59:43.343Z,5.73
2023-03-05T06:02:11.546Z,6.53
2023-03-05T06:04:40.442Z,6.95
2023-03-05T06:07:08.986Z,7.65
2023-03-05T06:09:36.995Z,8.29
2023-03-05T06:12:05.120Z,8.34
2023-03-05T06:14:32.625Z,7.82
2023-03-05T06:17:00.278Z,8.73
2023-03-05T06:19:27.730Z,9.18
2023-03-05T06:21:55.768Z,9.58
2023-03-05T06:24:23.490Z,10.04
2023-03-05T06:26:51.173Z,9.76
2023-03-05T06:29:18.708Z,10.34
2023-03-05T06:31:46.281Z,10.20
2023-03-05T06:34:13.555Z,9.09
2023-03-05T06:36:41.275Z,9.79
2023-03-05T06:39:08.773Z,10.84
2023-03-05T06:41:36.608Z,10.81
2023-03-05T06:44:04.552Z,11.12
2023-03-05T06:46:37.704Z,10.88
2023-03-05T06:49:05.802Z,9.78
2023-03-05T06:51:35.837Z,10.23
2023-03-05T06:54:06.619Z,10.32
2023-03-05T06:56:37.252Z,11.15
2023-03-05T06:59:05.816Z,11.59
2023-03-05T07:01:34.343Z,11.53
2023-03-05T07:04:03.280Z,10.07
2023-03-05T07:06:37.082Z,10.10
2023-03-05T07:09:07.379Z,10.22
2023-03-05T07:11:37.971Z,9.77
2023-03-05T07:14:05.424Z,8.81
2023-03-05T07:16:35.755Z,9.71
2023-03-05T07:19:07.648Z,8.51
2023-03-05T07:21:38.354Z,8.65
2023-03-05T07:24:09.593Z,9.03
2023-03-05T07:26:37.481Z,9.63
2023-03-05T07:29:04.959Z,9.98
2023-03-05T07:31:32.801Z,9.60
2023-03-05T07:34:02.666Z,7.95
2023-03-05T07:36:31.173Z,8.87
2023-03-05T07:38:58.536Z,8.52
2023-03-05T07:41:26.785Z,7.98
2023-03-05T07:43:55.491Z,8.15
2023-03-05T07:46:27.143Z,8.17
2023-03-05T07:48:58.788Z,6.98
2023-03-05T07:51:27.750Z,7.76
2023-03-05T07:53:58.532Z,9.09
2023-03-05T07:56:32.234Z,8.74
2023-03-05T07:59:00.791Z,9.99
2023-03-05T08:01:29.906Z,10.41
2023-03-05T08:03:57.411Z,11.03
2023-03-05T08:06:25.175Z,10.93
2023-03-05T08:08:52.516Z,10.79
2023-03-05T08:11:20.265Z,10.75
2023-03-05T08:13:47.680Z,11.28
2023-03-05T08:16:20.238Z,11.46
2023-03-05T08:18:49.389Z,11.69
2023-03-05T08:21:27.132Z,11.92
2023-03-05T08:23:54.693Z,11.52
2023-03-05T08:26:26.205Z,11.84
2023-03-05T08:28:54.242Z,11.85
2023-03-05T08:31:24.202Z,11.40
2023-03-05T08:33:53.401Z,11.77
2023-03-05T08:36:22.219Z,11.27
2023-03-05T08:39:13.204Z,11.01
2023-03-05T08:42:03.384Z,11.00
2023-03-05T08:44:37.325Z,10.99
2023-03-05T08:51:45.108Z,11.58
2023-03-05T08:54:20.277Z,11.86
2023-03-05T08:57:12.628Z,11.04
2023-03-05T09:00:10.500Z,10.86
2023-03-05T09:02:39.348Z,11.41
2023-03-05T09:05:07.786Z,11.28
2023-03-05T09:07:35.193Z,11.22
2023-03-05T09:10:02.988Z,10.92
2023-03-05T09:12:30.415Z,10.82
2023-03-05T09:14:58.088Z,10.60
2023-03-05T09:17:25.547Z,10.00
2023-03-05T09:19:54.423Z,10.73
2023-03-05T09:22:21.858Z,11.34
2023-03-05T09:24:49.720Z,10.79
2023-03-05T09:27:17.158Z,10.52
2023-03-05T09:29:44.973Z,10.85
2023-03-05T09:32:12.486Z,11.23
2023-03-05T09:34:40.321Z,11.91
2023-03-05T09:37:09.418Z,11.45
2023-03-05T09:39:37.137Z,11.87
2023-03-05T09:42:11.961Z,12.39
2023-03-05T09:44:59.388Z,12.41
2023-03-05T09:47:57.987Z,12.91
2023-03-05T09:50:35.525Z,12.69
2023-03-05T09:53:06.349Z,12.49
2023-03-05T09:55:42.499Z,11.91
2023-03-05T09:58:35.266Z,12.12
2023-03-05T10:01:11.659Z,12.50
2023-03-05T10:03:46.329Z,12.74
2023-03-05T10:06:23.233Z,12.98
2023-03-05T10:09:03.050Z,11.88
2023-03-05T10:11:39.978Z,11.56
2023-03-05T10:14:14.064Z,11.83
2023-03-05T10:17:01.983Z,11.67
2023-03-05T10:19:56.086Z,12.29
2023-03-05T10:22:29.148Z,12.26
2023-03-05T10:25:35.291Z,11.60
2023-03-05T10:28:18.103Z,11.25
2023-03-05T10:31:08.351Z,11.53
2023-03-05T10:33:54.412Z,12.57
2023-03-05T10:36:39.052Z,11.54
2023-03-05T10:39:48.367Z,11.39
2023-03-05T10:42:47.129Z,11.52
2023-03-05T10:45:36.542Z,10.85
2023-03-05T10:49:30.145Z,11.11
2023-03-05T10:53:23.500Z,11.79
2023-03-05T10:56:09.347Z,11.39
2023-03-05T10:58:46.528Z,11.15
2023-03-05T11:01:54.036Z,11.44
2023-03-05T11:04:56.139Z,11.17
2023-03-05T11:07:36.686Z,11.77
2023-03-05T11:10:37.742Z,12.83
2023-03-05T11:13:46.792Z,13.48
2023-03-05T11:17:41.498Z,13.42
2023-03-05T11:20:43.006Z,13.94
2023-03-05T11:23:26.523Z,13.62
2023-03-05T11:26:44.159Z,12.76
2023-03-05T11:29:39.641Z,12.49
2023-03-05T11:32:32.186Z,12.34
2023-03-05T11:35:32.246Z,12.70
2023-03-05T11:39:00.890Z,12.64
2023-03-05T11:42:19.035Z,12.62
2023-03-05T11:45:14.624Z,13.10
2023-03-05T11:48:08.362Z,12.42
2023-03-05T11:51:08.396Z,11.78
2023-03-05T11:53:46.870Z,11.42
2023-03-05T11:56:28.415Z,11.84
2023-03-05T11:59:36.233Z,12.03
2023-03-05T12:02:53.087Z,12.99
2023-03-05T12:05:48.292Z,12.61
2023-03-05T12:08:36.022Z,12.60
2023-03-05T12:11:19.583Z,12.20
2023-03-05T12:18:06.301Z,11.95
2023-03-05T12:21:32.234Z,11.73
2023-03-05T12:24:38.028Z,11.41
2023-03-05T12:28:04.867Z,11.27
2023-03-05T12:30:49.556Z,11.69
2023-03-05T12:33:47.329Z,11.97
2023-03-05T12:36:41.618Z,11.20
2023-03-05T12:39:41.706Z,12.16
2023-03-05T12:42:30.821Z,12.49
2023-03-05T12:45:16.260Z,12.05
2023-03-05T12:48:25.986Z,11.74
2023-03-05T12:51:04.756Z,12.43
2023-03-05T12:53:42.155Z,12.34
2023-03-05T12:56:27.988Z,11.90
2023-03-05T12:59:07.117Z,11.44
2023-03-05T13:02:32.967Z,11.80
2023-03-05T13:05:18.315Z,12.20
2023-03-05T13:07:47.306Z,12.48
2023-03-05T13:10:24.324Z,12.37
2023-03-05T13:12:54.338Z,11.78
2023-03-05T13:15:24.467Z,11.29
2023-03-05T13:18:03.640Z,11.62
2023-03-05T13:20:40.845Z,11.60
2023-03-05T13:23:29.152Z,10.71
2023-03-05T13:26:20.299Z,10.79
2023-03-05T13:29:08.623Z,11.17
2023-03-05T13:31:46.781Z,11.11
2023-03-05T13:34:47.618Z,10.53
2023-03-05T13:37:22.422Z,10.87
2023-03-05T13:40:01.498Z,10.79
2023-03-05T13:42:37.069Z,9.56
2023-03-05T13:45:21.495Z,9.64
2023-03-05T13:47:57.270Z,10.28
2023-03-05T13:50:28.038Z,10.74
2023-03-05T13:53:15.802Z,10.59
2023-03-05T13:55:43.769Z,10.63
2023-03-05T13:58:54.058Z,10.60
2023-03-05T14:01:33.040Z,10.50
2023-03-05T14:04:08.348Z,10.60
2023-03-05T14:06:42.677Z,10.88
2023-03-05T14:09:19.030Z,10.93
2023-03-05T14:12:21.648Z,10.93
2023-03-05T14:14:50.238Z,11.13
2023-03-05T14:17:38.812Z,11.71
2023-03-05T14:20:11.874Z,11.50
2023-03-05T14:22:45.766Z,10.99
2023-03-05T14:25:39.901Z,10.40
2023-03-05T14:28:26.321Z,10.43
2023-03-05T14:30:56.533Z,10.37
2023-03-05T14:33:29.908Z,9.95
2023-03-05T14:36:00.058Z,9.83
2023-03-05T14:38:33.866Z,9.98
2023-03-05T14:41:31.538Z,9.95
2023-03-05T14:43:59.534Z,9.75
2023-03-05T14:46:27.222Z,9.55
2023-03-05T14:48:55.040Z,9.51
2023-03-05T14:51:26.002Z,9.23
2023-03-05T14:53:59.269Z,9.41
2023-03-05T14:56:29.089Z,9.27
2023-03-05T14:58:59.952Z,9.32
2023-03-05T15:01:31.885Z,9.76
2023-03-05T15:04:33.370Z,9.71
2023-03-05T15:07:41.976Z,9.54
2023-03-05T15:11:06.280Z,9.81
2023-03-05T15:17:18.903Z,9.47
2023-03-05T15:19:57.262Z,9.42
2023-03-05T15:22:57.095Z,9.68
2023-03-05T15:25:30.100Z,9.51
2023-03-05T15:27:59.206Z,9.41
2023-03-05T15:30:32.527Z,9.27
2023-03-05T15:33:06.965Z,9.32
2023-03-05T15:35:34.499Z,9.51
2023-03-05T15:38:02.933Z,9.53
2023-03-05T15:40:30.807Z,9.42
2023-03-05T15:43:00.194Z,9.26
2023-03-05T15:45:31.673Z,9.20
2023-03-05T15:48:01.751Z,9.17
2023-03-05T15:50:29.601Z,9.12
2023-03-05T15:52:57.886Z,8.66
2023-03-05T15:55:25.281Z,8.76
2023-03-05T15:57:54.261Z,8.61
2023-03-05T16:00:34.746Z,8.49
2023-03-05T16:03:23.867Z,8.07
2023-03-05T16:05:52.906Z,8.17
2023-03-05T16:08:33.695Z,8.37
2023-03-05T16:11:11.453Z,8.48
2023-03-05T16:13:42.886Z,8.26
2023-03-05T16:16:26.138Z,8.38
2023-03-05T16:19:08.451Z,8.28
2023-03-05T16:21:44.741Z,8.17
2023-03-05T16:24:45.086Z,8.25
2023-03-05T16:27:22.282Z,8.24
2023-03-05T16:29:59.196Z,8.16
2023-03-05T16:32:30.329Z,8.24
2023-03-05T16:35:07.955Z,8.11
2023-03-05T16:37:36.926Z,8.11
2023-03-05T16:40:56.526Z,7.95
2023-03-05T16:43:26.681Z,7.83
2023-03-05T16:45:59.135Z,7.85
2023-03-05T16:48:29.205Z,7.83
2023-03-05T16:51:01.403Z,7.85
2023-03-05T16:53:31.756Z,7.76
2023-03-05T16:56:05.784Z,7.72
2023-03-05T16:58:34.738Z,7.68
2023-03-05T17:01:04.468Z,7.64
2023-03-05T17:03:32.078Z,7.50
2023-03-05T17:06:09.168Z,7.59
2023-03-05T17:08:38.959Z,7.35
2023-03-05T17:11:33.506Z,7.41
2023-03-05T17:14:04.195Z,7.51
2023-03-05T17:16:34.147Z,7.52
2023-03-05T17:19:03.101Z,7.55
2023-03-05T17:21:31.001Z,7.57
2023-03-05T17:24:04.263Z,7.65
2023-03-05T17:26:35.334Z,7.64
2023-03-05T17:29:11.101Z,7.61
2023-03-05T17:31:39.185Z,7.70
2023-03-05T17:34:06.525Z,7.66
2023-03-05T17:36:50.973Z,7.73
2023-03-05T17:39:19.173Z,7.64
2023-03-05T17:41:54.706Z,7.71
2023-03-05T17:44:28.575Z,7.86
2023-03-05T17:46:59.624Z,7.86
2023-03-05T17:49:30.781Z,7.88
2023-03-05T17:51:59.275Z,7.85
2023-03-05T17:54:28.613Z,7.92
2023-03-05T17:56:57.277Z,7.94
2023-03-05T17:59:28.329Z,8.02
2023-03-05T18:01:58.328Z,7.99
2023-03-05T18:04:25.869Z,7.97
2023-03-05T18:06:55.373Z,7.99
2023-03-05T18:09:23.959Z,7.96
2023-03-05T18:11:54.350Z,7.89
2023-03-05T18:14:23.328Z,7.79
2023-03-05T18:16:52.699Z,7.71
2023-03-05T18:19:51.364Z,7.89
2023-03-05T18:22:24.213Z,7.70
2023-03-05T18:24:52.846Z,7.58
2023-03-05T18:27:55.407Z,7.65
2023-03-05T18:30:42.555Z,7.44
2023-03-05T18:33:31.762Z,7.53
2023-03-05T18:36:14.607Z,7.47
2023-03-05T18:38:58.544Z,7.13
2023-03-05T18:45:07.479Z,7.38
2023-03-05T18:47:59.057Z,7.31
2023-03-05T18:50:55.262Z,7.24
2023-03-05T18:53:30.942Z,7.22
2023-03-05T18:56:01.866Z,7.13
2023-03-05T18:58:34.547Z,7.26
2023-03-05T19:01:09.534Z,7.06
2023-03-05T19:03:41.366Z,7.09
2023-03-05T19:06:11.789Z,7.08
2023-03-05T19:08:40.905Z,7.08
2023-03-05T19:11:20.372Z,7.17
2023-03-05T19:13:51.693Z,7.16
2023-03-05T19:16:30.560Z,7.22
2023-03-05T19:19:15.596Z,7.19
2023-03-05T19:21:48.985Z,7.10
2023-03-05T19:24:17.321Z,7.20
2023-03-05T19:26:48.132Z,7.23
2023-03-05T19:29:15.911Z,7.08
2023-03-05T19:31:45.614Z,7.07
2023-03-05T19:34:13.948Z,6.85
2023-03-05T19:36:41.879Z,6.73
2023-03-05T19:39:10.286Z,6.77
2023-03-05T19:41:41.183Z,6.93
2023-03-05T19:44:09.949Z,7.06
2023-03-05T19:46:47.153Z,6.99
2023-03-05T19:49:18.401Z,6.97
2023-03-05T19:51:47.293Z,6.98
2023-03-05T19:54:16.760Z,6.91
2023-03-05T19:56:46.075Z,6.90
2023-03-05T19:59:16.566Z,6.93
2023-03-05T20:01:46.069Z,6.93
2023-03-05T20:04:17.136Z,6.91
2023-03-05T20:06:44.932Z,7.07
2023-03-05T20:09:12.392Z,7.04
2023-03-05T20:11:40.624Z,7.00
2023-03-05T20:14:08.600Z,7.04
2023-03-05T20:16:38.072Z,7.10
2023-03-05T20:19:08.601Z,7.04
2023-03-05T20:21:40.827Z,6.76
2023-03-05T20:24:11.674Z,6.60
2023-03-05T20:26:41.292Z,6.57
2023-03-05T20:29:09.908Z,6.73
2023-03-05T20:31:38.211Z,6.81
2023-03-05T20:34:12.589Z,6.83
2023-03-05T20:36:40.826Z,6.74
2023-03-05T20:39:08.748Z,6.71
2023-03-05T20:41:39.733Z,6.68
2023-03-05T20:44:11.529Z,6.78
2023-03-05T20:47:37.576Z,6.85
2023-03-05T20:50:16.767Z,6.99
2023-03-05T20:52:48.370Z,7.04
2023-03-05T20:55:15.874Z,6.99
2023-03-05T20:57:46.423Z,7.05
2023-03-05T21:00:15.009Z,6.64
2023-03-05T21:02:42.964Z,6.78
2023-03-05T21:05:10.481Z,6.76
2023-03-05T21:07:38.954Z,6.67
2023-03-05T21:10:06.744Z,6.77
2023-03-05T21:12:35.757Z,6.76
2023-03-05T21:15:04.988Z,6.55
2023-03-05T21:17:36.149Z,6.51
2023-03-05T21:20:07.385Z,6.42
2023-03-05T21:22:36.296Z,6.51
2023-03-05T21:25:25.046Z,6.54
2023-03-05T21:28:07.031Z,6.65
2023-03-05T21:30:49.253Z,6.68
2023-03-05T21:33:24.233Z,6.63
2023-03-05T21:35:54.683Z,6.78
2023-03-05T21:38:31.047Z,6.85
2023-03-05T21:40:59.313Z,6.90
2023-03-05T21:43:32.564Z,6.82
2023-03-05T21:46:08.838Z,6.82
2023-03-05T21:48:43.546Z,6.59
2023-03-05T21:51:49.042Z,6.71
2023-03-05T21:54:20.205Z,6.86
2023-03-05T21:56:47.602Z,6.95
2023-03-05T21:59:16.845Z,6.92
2023-03-05T22:01:50.354Z,6.87
2023-03-05T22:04:23.901Z,6.81
2023-03-05T22:07:06.585Z,6.55
2023-03-05T22:09:37.136Z,6.34
2023-03-05T22:12:32.877Z,6.29
2023-03-05T22:15:22.948Z,6.23
2023-03-05T22:17:51.999Z,6.24
2023-03-05T22:20:20.102Z,6.13
2023-03-05T22:22:47.762Z,6.27
2023-03-05T22:25:16.170Z,6.22
2023-03-05T22:27:44.990Z,6.40
2023-03-05T22:30:13.812Z,6.58
2023-03-05T22:32:42.412Z,6.75
2023-03-05T22:35:15.067Z,6.79
2023-03-05T22:37:44.068Z,6.94
2023-03-05T22:40:18.469Z,7.01
2023-03-05T22:42:46.335Z,6.77
2023-03-05T22:45:15.910Z,6.64
2023-03-05T22:47:43.639Z,6.41
2023-03-05T22:50:12.811Z,6.28
2023-03-05T22:52:46.836Z,6.23
2023-03-05T22:55:18.474Z,6.11
2023-03-05T22:57:46.477Z,6.30
2023-03-05T23:00:18.759Z,6.77
2023-03-05T23:02:46.456Z,6.84
2023-03-05T23:05:14.642Z,6.57
2023-03-05T23:07:43.054Z,6.37
2023-03-05T23:10:20.846Z,6.13
2023-03-05T23:12:52.226Z,6.16
2023-03-05T23:15:24.735Z,5.89
2023-03-05T23:17:52.557Z,5.96
2023-03-05T23:20:23.453Z,5.92
2023-03-05T23:22:56.402Z,6.18
2023-03-05T23:25:30.326Z,6.26
2023-03-05T23:27:59.093Z,6.66
2023-03-05T23:30:33.276Z,6.69
2023-03-05T23:33:13.758Z,6.78
2023-03-05T23:35:43.880Z,6.61
2023-03-05T23:38:14.682Z,6.30
2023-03-05T23:40:49.465Z,6.21
2023-03-05T23:43:25.779Z,6.07
2023-03-05T23:45:55.363Z,6.00
2023-03-05T23:48:26.536Z,5.79
2023-03-05T23:50:56.305Z,5.91
2023-03-05T23:53:33.756Z,5.77
2023-03-05T23:56:08.201Z,5.63
2023-03-05T23:58:36.371Z,5.68
